sensor_id;sensor_type;location;lat;lon;timestamp;P1;durP1;ratioP1;P2;durP2;ratioP2
12665;SDS011;58531;59.050;17.416;2022-10-31T00:00:46;7.03;;;4.10;;
12665;SDS011;58531;59.050;17.416;2022-10-31T00:03:14;15.27;;;7.33;;
12665;SDS011;58531;59.050;17.416;2022-10-31T00:05:44;11.10;;;4.40;;
12665;SDS011;58531;59.050;17.416;2022-10-31T00:08:13;12.13;;;4.17;;
12665;SDS011;58531;59.050;17.416;2022-10-31T00:10:41;10.07;;;4.20;;
12665;SDS011;58531;59.050;17.416;2022-10-31T00:13:09;11.10;;;4.17;;
12665;SDS011;58531;59.050;17.416;2022-10-31T00:15:38;38.23;;;6.10;;
12665;SDS011;58531;59.050;17.416;2022-10-31T00:18:07;33.53;;;5.93;;
12665;SDS011;58531;59.050;17.416;2022-10-31T00:20:35;168.33;;;15.97;;
12665;SDS011;58531;59.050;17.416;2022-10-31T00:23:18;50.70;;;7.50;;
12665;SDS011;58531;59.050;17.416;2022-10-31T00:25:46;20.17;;;5.10;;
12665;SDS011;58531;59.050;17.416;2022-10-31T00:28:15;10.77;;;4.00;;
12665;SDS011;58531;59.050;17.416;2022-10-31T00:30:42;8.40;;;4.13;;
12665;SDS011;58531;59.050;17.416;2022-10-31T00:33:11;10.27;;;4.23;;
12665;SDS011;58531;59.050;17.416;2022-10-31T00:35:40;40.67;;;6.70;;
12665;SDS011;58531;59.050;17.416;2022-10-31T00:38:09;23.93;;;5.70;;
12665;SDS011;58531;59.050;17.416;2022-10-31T00:40:39;22.33;;;6.00;;
12665;SDS011;58531;59.050;17.416;2022-10-31T00:43:07;52.27;;;14.43;;
12665;SDS011;58531;59.050;17.416;2022-10-31T00:45:36;23.83;;;11.03;;
12665;SDS011;58531;59.050;17.416;2022-10-31T00:48:06;21.63;;;8.83;;
12665;SDS011;58531;59.050;17.416;2022-10-31T00:50:37;14.83;;;5.10;;
12665;SDS011;58531;59.050;17.416;2022-10-31T00:53:09;15.13;;;5.13;;
12665;SDS011;58531;59.050;17.416;2022-10-31T00:55:44;34.27;;;7.07;;
12665;SDS011;58531;59.050;17.416;2022-10-31T00:58:13;21.17;;;8.63;;
12665;SDS011;58531;59.050;17.416;2022-10-31T01:00:42;22.43;;;7.87;;
12665;SDS011;58531;59.050;17.416;2022-10-31T01:03:10;15.77;;;6.80;;
12665;SDS011;58531;59.050;17.416;2022-10-31T01:05:38;32.63;;;7.20;;
12665;SDS011;58531;59.050;17.416;2022-10-31T01:08:06;14.63;;;5.47;;
12665;SDS011;58531;59.050;17.416;2022-10-31T01:10:35;9.90;;;5.30;;
12665;SDS011;58531;59.050;17.416;2022-10-31T01:13:04;12.87;;;5.37;;
12665;SDS011;58531;59.050;17.416;2022-10-31T01:15:32;13.43;;;5.43;;
12665;SDS011;58531;59.050;17.416;2022-10-31T01:18:00;14.93;;;5.70;;
12665;SDS011;58531;59.050;17.416;2022-10-31T01:20:28;17.83;;;6.27;;
12665;SDS011;58531;59.050;17.416;2022-10-31T01:22:57;17.73;;;5.67;;
12665;SDS011;58531;59.050;17.416;2022-10-31T01:25:27;62.50;;;9.53;;
12665;SDS011;58531;59.050;17.416;2022-10-31T01:27:55;47.20;;;8.47;;
12665;SDS011;58531;59.050;17.416;2022-10-31T01:30:24;12.77;;;5.00;;
12665;SDS011;58531;59.050;17.416;2022-10-31T01:32:52;11.47;;;5.43;;
12665;SDS011;58531;59.050;17.416;2022-10-31T01:35:19;16.73;;;5.80;;
12665;SDS011;58531;59.050;17.416;2022-10-31T01:37:47;46.77;;;7.70;;
12665;SDS011;58531;59.050;17.416;2022-10-31T01:40:23;206.50;;;16.83;;
12665;SDS011;58531;59.050;17.416;2022-10-31T01:42:55;18.60;;;5.53;;
12665;SDS011;58531;59.050;17.416;2022-10-31T01:45:26;31.67;;;7.40;;
12665;SDS011;58531;59.050;17.416;2022-10-31T01:47:55;15.43;;;5.63;;
12665;SDS011;58531;59.050;17.416;2022-10-31T01:50:26;120.13;;;13.10;;
12665;SDS011;58531;59.050;17.416;2022-10-31T01:52:59;67.87;;;7.70;;
12665;SDS011;58531;59.050;17.416;2022-10-31T01:55:29;149.77;;;16.83;;
12665;SDS011;58531;59.050;17.416;2022-10-31T01:58:01;96.97;;;11.33;;
12665;SDS011;58531;59.050;17.416;2022-10-31T02:00:35;105.73;;;11.23;;
12665;SDS011;58531;59.050;17.416;2022-10-31T02:03:04;80.40;;;9.03;;
12665;SDS011;58531;59.050;17.416;2022-10-31T02:05:32;79.40;;;8.77;;
12665;SDS011;58531;59.050;17.416;2022-10-31T02:08:04;141.23;;;12.73;;
12665;SDS011;58531;59.050;17.416;2022-10-31T02:10:35;34.50;;;6.40;;
12665;SDS011;58531;59.050;17.416;2022-10-31T02:13:04;15.83;;;5.20;;
12665;SDS011;58531;59.050;17.416;2022-10-31T02:15:35;23.70;;;7.20;;
12665;SDS011;58531;59.050;17.416;2022-10-31T02:18:04;17.17;;;6.87;;
12665;SDS011;58531;59.050;17.416;2022-10-31T02:20:35;47.10;;;7.87;;
12665;SDS011;58531;59.050;17.416;2022-10-31T02:23:26;32.73;;;7.40;;
12665;SDS011;58531;59.050;17.416;2022-10-31T02:26:31;17.60;;;6.07;;
12665;SDS011;58531;59.050;17.416;2022-10-31T02:29:13;24.70;;;6.73;;
12665;SDS011;58531;59.050;17.416;2022-10-31T02:31:56;18.20;;;6.17;;
12665;SDS011;58531;59.050;17.416;2022-10-31T02:34:30;25.30;;;7.37;;
12665;SDS011;58531;59.050;17.416;2022-10-31T02:37:06;13.57;;;5.90;;
12665;SDS011;58531;59.050;17.416;2022-10-31T02:39:42;13.20;;;5.37;;
12665;SDS011;58531;59.050;17.416;2022-10-31T02:42:14;15.13;;;5.73;;
12665;SDS011;58531;59.050;17.416;2022-10-31T02:44:51;12.57;;;5.53;;
12665;SDS011;58531;59.050;17.416;2022-10-31T02:47:36;18.87;;;5.80;;
12665;SDS011;58531;59.050;17.416;2022-10-31T02:50:06;16.97;;;5.73;;
12665;SDS011;58531;59.050;17.416;2022-10-31T02:52:37;13.40;;;5.93;;
12665;SDS011;58531;59.050;17.416;2022-10-31T02:55:09;50.50;;;8.13;;
12665;SDS011;58531;59.050;17.416;2022-10-31T02:57:38;12.70;;;5.73;;
12665;SDS011;58531;59.050;17.416;2022-10-31T03:00:09;18.00;;;5.60;;
12665;SDS011;58531;59.050;17.416;2022-10-31T03:05:37;15.23;;;5.70;;
12665;SDS011;58531;59.050;17.416;2022-10-31T03:08:12;13.33;;;6.33;;
12665;SDS011;58531;59.050;17.416;2022-10-31T03:10:50;15.23;;;5.73;;
12665;SDS011;58531;59.050;17.416;2022-10-31T03:13:26;12.63;;;5.07;;
12665;SDS011;58531;59.050;17.416;2022-10-31T03:16:03;20.47;;;5.80;;
12665;SDS011;58531;59.050;17.416;2022-10-31T03:18:39;16.93;;;5.77;;
12665;SDS011;58531;59.050;17.416;2022-10-31T03:21:09;20.33;;;5.47;;
12665;SDS011;58531;59.050;17.416;2022-10-31T03:23:40;11.30;;;5.57;;
12665;SDS011;58531;59.050;17.416;2022-10-31T03:26:13;13.83;;;5.63;;
12665;SDS011;58531;59.050;17.416;2022-10-31T03:28:44;15.17;;;5.57;;
12665;SDS011;58531;59.050;17.416;2022-10-31T03:31:19;13.80;;;5.13;;
12665;SDS011;58531;59.050;17.416;2022-10-31T03:33:55;12.93;;;4.80;;
12665;SDS011;58531;59.050;17.416;2022-10-31T03:36:29;12.03;;;4.73;;
12665;SDS011;58531;59.050;17.416;2022-10-31T03:38:59;22.77;;;7.37;;
12665;SDS011;58531;59.050;17.416;2022-10-31T03:41:30;19.13;;;6.07;;
12665;SDS011;58531;59.050;17.416;2022-10-31T03:44:01;20.73;;;6.57;;
12665;SDS011;58531;59.050;17.416;2022-10-31T03:46:35;22.83;;;7.77;;
12665;SDS011;58531;59.050;17.416;2022-10-31T03:49:08;27.00;;;6.97;;
12665;SDS011;58531;59.050;17.416;2022-10-31T03:51:37;43.10;;;8.00;;
12665;SDS011;58531;59.050;17.416;2022-10-31T03:54:10;38.20;;;8.43;;
12665;SDS011;58531;59.050;17.416;2022-10-31T03:56:44;31.43;;;8.03;;
12665;SDS011;58531;59.050;17.416;2022-10-31T03:59:18;31.07;;;7.80;;
12665;SDS011;58531;59.050;17.416;2022-10-31T04:01:50;36.60;;;8.23;;
12665;SDS011;58531;59.050;17.416;2022-10-31T04:04:23;35.47;;;8.80;;
12665;SDS011;58531;59.050;17.416;2022-10-31T04:06:52;43.30;;;8.63;;
12665;SDS011;58531;59.050;17.416;2022-10-31T04:09:25;59.60;;;8.73;;
12665;SDS011;58531;59.050;17.416;2022-10-31T04:11:54;57.40;;;9.73;;
12665;SDS011;58531;59.050;17.416;2022-10-31T04:14:27;45.87;;;8.73;;
12665;SDS011;58531;59.050;17.416;2022-10-31T04:16:59;38.73;;;8.27;;
12665;SDS011;58531;59.050;17.416;2022-10-31T04:19:30;39.13;;;8.53;;
12665;SDS011;58531;59.050;17.416;2022-10-31T04:21:59;34.57;;;7.93;;
12665;SDS011;58531;59.050;17.416;2022-10-31T04:24:37;44.43;;;9.13;;
12665;SDS011;58531;59.050;17.416;2022-10-31T04:27:08;62.10;;;10.17;;
12665;SDS011;58531;59.050;17.416;2022-10-31T04:29:37;29.77;;;8.13;;
12665;SDS011;58531;59.050;17.416;2022-10-31T04:32:07;29.97;;;8.27;;
12665;SDS011;58531;59.050;17.416;2022-10-31T04:34:36;29.43;;;7.40;;
12665;SDS011;58531;59.050;17.416;2022-10-31T04:37:03;27.13;;;7.73;;
12665;SDS011;58531;59.050;17.416;2022-10-31T04:39:31;23.37;;;6.80;;
12665;SDS011;58531;59.050;17.416;2022-10-31T04:41:58;38.30;;;7.37;;
12665;SDS011;58531;59.050;17.416;2022-10-31T04:44:27;26.17;;;7.10;;
12665;SDS011;58531;59.050;17.416;2022-10-31T04:46:55;64.10;;;9.23;;
12665;SDS011;58531;59.050;17.416;2022-10-31T04:49:26;55.87;;;8.73;;
12665;SDS011;58531;59.050;17.416;2022-10-31T04:51:56;35.63;;;6.80;;
12665;SDS011;58531;59.050;17.416;2022-10-31T04:54:24;26.87;;;6.50;;
12665;SDS011;58531;59.050;17.416;2022-10-31T04:56:52;34.23;;;6.97;;
12665;SDS011;58531;59.050;17.416;2022-10-31T04:59:25;30.17;;;7.50;;
12665;SDS011;58531;59.050;17.416;2022-10-31T05:01:53;40.97;;;7.83;;
12665;SDS011;58531;59.050;17.416;2022-10-31T05:04:24;25.17;;;7.23;;
12665;SDS011;58531;59.050;17.416;2022-10-31T05:06:51;51.20;;;9.17;;
12665;SDS011;58531;59.050;17.416;2022-10-31T05:09:22;34.30;;;8.40;;
12665;SDS011;58531;59.050;17.416;2022-10-31T05:11:50;35.17;;;8.47;;
12665;SDS011;58531;59.050;17.416;2022-10-31T05:14:18;33.57;;;7.63;;
12665;SDS011;58531;59.050;17.416;2022-10-31T05:17:00;84.10;;;11.00;;
12665;SDS011;58531;59.050;17.416;2022-10-31T05:19:30;45.93;;;9.20;;
12665;SDS011;58531;59.050;17.416;2022-10-31T05:21:58;29.30;;;7.53;;
12665;SDS011;58531;59.050;17.416;2022-10-31T05:24:28;41.23;;;8.83;;
12665;SDS011;58531;59.050;17.416;2022-10-31T05:26:58;32.63;;;9.40;;
12665;SDS011;58531;59.050;17.416;2022-10-31T05:29:28;51.00;;;10.77;;
12665;SDS011;58531;59.050;17.416;2022-10-31T05:31:58;27.77;;;8.63;;
12665;SDS011;58531;59.050;17.416;2022-10-31T05:34:27;26.53;;;8.10;;
12665;SDS011;58531;59.050;17.416;2022-10-31T05:36:55;35.10;;;9.63;;
12665;SDS011;58531;59.050;17.416;2022-10-31T05:39:23;39.60;;;9.07;;
12665;SDS011;58531;59.050;17.416;2022-10-31T05:41:52;64.10;;;9.37;;
12665;SDS011;58531;59.050;17.416;2022-10-31T05:44:20;64.20;;;11.70;;
12665;SDS011;58531;59.050;17.416;2022-10-31T05:46:47;65.83;;;10.63;;
12665;SDS011;58531;59.050;17.416;2022-10-31T05:49:15;37.93;;;9.87;;
12665;SDS011;58531;59.050;17.416;2022-10-31T05:51:45;32.63;;;7.83;;
12665;SDS011;58531;59.050;17.416;2022-10-31T05:54:14;44.63;;;9.53;;
12665;SDS011;58531;59.050;17.416;2022-10-31T05:56:42;68.90;;;12.27;;
12665;SDS011;58531;59.050;17.416;2022-10-31T05:59:10;98.23;;;13.07;;
12665;SDS011;58531;59.050;17.416;2022-10-31T06:01:41;40.00;;;10.20;;
12665;SDS011;58531;59.050;17.416;2022-10-31T06:04:08;38.97;;;8.43;;
12665;SDS011;58531;59.050;17.416;2022-10-31T06:06:39;46.60;;;11.10;;
12665;SDS011;58531;59.050;17.416;2022-10-31T06:09:07;32.83;;;10.00;;
12665;SDS011;58531;59.050;17.416;2022-10-31T06:11:35;53.63;;;14.07;;
12665;SDS011;58531;59.050;17.416;2022-10-31T06:14:17;43.37;;;11.57;;
12665;SDS011;58531;59.050;17.416;2022-10-31T06:16:45;89.77;;;15.73;;
12665;SDS011;58531;59.050;17.416;2022-10-31T06:19:12;68.03;;;14.67;;
12665;SDS011;58531;59.050;17.416;2022-10-31T06:21:42;41.97;;;12.63;;
12665;SDS011;58531;59.050;17.416;2022-10-31T06:24:11;84.27;;;16.03;;
12665;SDS011;58531;59.050;17.416;2022-10-31T06:26:38;55.90;;;13.80;;
12665;SDS011;58531;59.050;17.416;2022-10-31T06:29:08;63.03;;;14.33;;
12665;SDS011;58531;59.050;17.416;2022-10-31T06:31:37;51.57;;;13.20;;
12665;SDS011;58531;59.050;17.416;2022-10-31T06:34:06;49.27;;;13.80;;
12665;SDS011;58531;59.050;17.416;2022-10-31T06:36:34;52.07;;;14.10;;
12665;SDS011;58531;59.050;17.416;2022-10-31T06:39:04;53.53;;;14.17;;
12665;SDS011;58531;59.050;17.416;2022-10-31T06:41:31;69.07;;;14.97;;
12665;SDS011;58531;59.050;17.416;2022-10-31T06:43:59;60.47;;;14.37;;
12665;SDS011;58531;59.050;17.416;2022-10-31T06:46:26;53.40;;;14.30;;
12665;SDS011;58531;59.050;17.416;2022-10-31T06:48:55;41.60;;;12.20;;
12665;SDS011;58531;59.050;17.416;2022-10-31T06:51:22;47.00;;;14.00;;
12665;SDS011;58531;59.050;17.416;2022-10-31T06:53:50;38.90;;;13.70;;
12665;SDS011;58531;59.050;17.416;2022-10-31T06:56:18;46.47;;;14.20;;
12665;SDS011;58531;59.050;17.416;2022-10-31T06:58:46;44.77;;;13.37;;
12665;SDS011;58531;59.050;17.416;2022-10-31T07:01:15;36.33;;;13.03;;
12665;SDS011;58531;59.050;17.416;2022-10-31T07:03:43;34.43;;;12.53;;
12665;SDS011;58531;59.050;17.416;2022-10-31T07:06:16;30.07;;;12.67;;
12665;SDS011;58531;59.050;17.416;2022-10-31T07:08:46;39.87;;;13.20;;
12665;SDS011;58531;59.050;17.416;2022-10-31T07:11:16;41.57;;;13.43;;
12665;SDS011;58531;59.050;17.416;2022-10-31T07:13:45;39.33;;;12.20;;
12665;SDS011;58531;59.050;17.416;2022-10-31T07:16:14;40.83;;;12.63;;
12665;SDS011;58531;59.050;17.416;2022-10-31T07:18:43;34.80;;;13.13;;
12665;SDS011;58531;59.050;17.416;2022-10-31T07:21:13;37.23;;;13.20;;
12665;SDS011;58531;59.050;17.416;2022-10-31T07:23:41;31.13;;;12.03;;
12665;SDS011;58531;59.050;17.416;2022-10-31T07:26:09;42.93;;;13.00;;
12665;SDS011;58531;59.050;17.416;2022-10-31T07:28:36;43.33;;;13.40;;
12665;SDS011;58531;59.050;17.416;2022-10-31T07:31:08;34.93;;;13.13;;
12665;SDS011;58531;59.050;17.416;2022-10-31T07:33:36;29.43;;;11.80;;
12665;SDS011;58531;59.050;17.416;2022-10-31T07:36:04;33.97;;;12.43;;
12665;SDS011;58531;59.050;17.416;2022-10-31T07:38:34;31.40;;;10.90;;
12665;SDS011;58531;59.050;17.416;2022-10-31T07:41:02;43.97;;;13.30;;
12665;SDS011;58531;59.050;17.416;2022-10-31T07:43:30;38.07;;;12.13;;
12665;SDS011;58531;59.050;17.416;2022-10-31T07:45:59;37.53;;;13.37;;
12665;SDS011;58531;59.050;17.416;2022-10-31T07:48:27;49.47;;;14.03;;
12665;SDS011;58531;59.050;17.416;2022-10-31T07:50:54;42.70;;;14.67;;
12665;SDS011;58531;59.050;17.416;2022-10-31T07:53:22;39.97;;;13.23;;
12665;SDS011;58531;59.050;17.416;2022-10-31T07:55:52;33.23;;;12.60;;
12665;SDS011;58531;59.050;17.416;2022-10-31T07:58:21;37.07;;;13.37;;
12665;SDS011;58531;59.050;17.416;2022-10-31T08:00:51;41.53;;;13.67;;
12665;SDS011;58531;59.050;17.416;2022-10-31T08:03:19;33.73;;;12.43;;
12665;SDS011;58531;59.050;17.416;2022-10-31T08:05:46;38.17;;;13.37;;
12665;SDS011;58531;59.050;17.416;2022-10-31T08:08:18;49.57;;;14.30;;
12665;SDS011;58531;59.050;17.416;2022-10-31T08:10:52;36.43;;;13.17;;
12665;SDS011;58531;59.050;17.416;2022-10-31T08:13:20;41.63;;;13.63;;
12665;SDS011;58531;59.050;17.416;2022-10-31T08:15:49;44.93;;;14.80;;
12665;SDS011;58531;59.050;17.416;2022-10-31T08:18:21;38.07;;;13.27;;
12665;SDS011;58531;59.050;17.416;2022-10-31T08:20:49;38.03;;;12.67;;
12665;SDS011;58531;59.050;17.416;2022-10-31T08:23:19;38.10;;;12.90;;
12665;SDS011;58531;59.050;17.416;2022-10-31T08:25:47;34.63;;;12.87;;
12665;SDS011;58531;59.050;17.416;2022-10-31T08:28:20;34.97;;;13.30;;
12665;SDS011;58531;59.050;17.416;2022-10-31T08:30:50;37.27;;;13.70;;
12665;SDS011;58531;59.050;17.416;2022-10-31T08:33:17;40.93;;;14.90;;
12665;SDS011;58531;59.050;17.416;2022-10-31T08:35:45;41.23;;;13.97;;
12665;SDS011;58531;59.050;17.416;2022-10-31T08:38:16;33.60;;;12.97;;
12665;SDS011;58531;59.050;17.416;2022-10-31T08:40:47;42.70;;;13.50;;
12665;SDS011;58531;59.050;17.416;2022-10-31T08:43:20;38.73;;;13.73;;
12665;SDS011;58531;59.050;17.416;2022-10-31T08:45:49;31.10;;;11.00;;
12665;SDS011;58531;59.050;17.416;2022-10-31T08:48:20;32.87;;;11.83;;
12665;SDS011;58531;59.050;17.416;2022-10-31T08:50:49;30.23;;;11.07;;
12665;SDS011;58531;59.050;17.416;2022-10-31T08:53:18;29.37;;;12.23;;
12665;SDS011;58531;59.050;17.416;2022-10-31T08:55:47;24.03;;;10.83;;
12665;SDS011;58531;59.050;17.416;2022-10-31T08:58:22;31.70;;;11.07;;
12665;SDS011;58531;59.050;17.416;2022-10-31T09:00:51;32.13;;;11.57;;
12665;SDS011;58531;59.050;17.416;2022-10-31T09:03:21;30.67;;;11.73;;
12665;SDS011;58531;59.050;17.416;2022-10-31T09:05:50;26.20;;;10.63;;
12665;SDS011;58531;59.050;17.416;2022-10-31T09:08:25;25.40;;;10.57;;
12665;SDS011;58531;59.050;17.416;2022-10-31T09:10:55;26.47;;;10.80;;
12665;SDS011;58531;59.050;17.416;2022-10-31T09:13:30;27.07;;;10.90;;
12665;SDS011;58531;59.050;17.416;2022-10-31T09:15:57;27.33;;;10.53;;
12665;SDS011;58531;59.050;17.416;2022-10-31T09:18:36;21.87;;;9.30;;
12665;SDS011;58531;59.050;17.416;2022-10-31T09:21:05;23.30;;;9.73;;
12665;SDS011;58531;59.050;17.416;2022-10-31T09:23:33;24.77;;;9.67;;
12665;SDS011;58531;59.050;17.416;2022-10-31T09:26:07;27.30;;;10.50;;
12665;SDS011;58531;59.050;17.416;2022-10-31T09:28:46;25.03;;;10.30;;
12665;SDS011;58531;59.050;17.416;2022-10-31T09:31:18;23.27;;;9.77;;
12665;SDS011;58531;59.050;17.416;2022-10-31T09:33:46;23.03;;;9.53;;
12665;SDS011;58531;59.050;17.416;2022-10-31T09:36:24;17.87;;;9.37;;
12665;SDS011;58531;59.050;17.416;2022-10-31T09:38:52;17.07;;;9.67;;
12665;SDS011;58531;59.050;17.416;2022-10-31T09:41:22;22.83;;;9.33;;
12665;SDS011;58531;59.050;17.416;2022-10-31T09:44:02;18.77;;;8.80;;
12665;SDS011;58531;59.050;17.416;2022-10-31T09:46:58;19.37;;;8.70;;
12665;SDS011;58531;59.050;17.416;2022-10-31T09:49:35;17.43;;;7.43;;
12665;SDS011;58531;59.050;17.416;2022-10-31T09:52:18;15.87;;;8.10;;
12665;SDS011;58531;59.050;17.416;2022-10-31T09:54:51;16.53;;;7.87;;
12665;SDS011;58531;59.050;17.416;2022-10-31T09:57:23;13.60;;;7.33;;
12665;SDS011;58531;59.050;17.416;2022-10-31T09:59:58;15.20;;;7.50;;
12665;SDS011;58531;59.050;17.416;2022-10-31T10:02:27;11.60;;;6.53;;
12665;SDS011;58531;59.050;17.416;2022-10-31T10:05:05;19.30;;;7.63;;
12665;SDS011;58531;59.050;17.416;2022-10-31T10:07:40;15.43;;;7.23;;
12665;SDS011;58531;59.050;17.416;2022-10-31T10:10:18;15.33;;;7.10;;
12665;SDS011;58531;59.050;17.416;2022-10-31T10:16:00;14.10;;;6.67;;
12665;SDS011;58531;59.050;17.416;2022-10-31T10:18:46;20.07;;;8.03;;
12665;SDS011;58531;59.050;17.416;2022-10-31T10:21:43;16.70;;;7.13;;
12665;SDS011;58531;59.050;17.416;2022-10-31T10:24:22;16.57;;;8.07;;
12665;SDS011;58531;59.050;17.416;2022-10-31T10:27:04;13.40;;;6.57;;
12665;SDS011;58531;59.050;17.416;2022-10-31T10:29:42;14.63;;;7.37;;
12665;SDS011;58531;59.050;17.416;2022-10-31T10:32:17;16.77;;;7.53;;
12665;SDS011;58531;59.050;17.416;2022-10-31T10:34:49;12.80;;;6.17;;
12665;SDS011;58531;59.050;17.416;2022-10-31T10:37:36;11.83;;;6.47;;
12665;SDS011;58531;59.050;17.416;2022-10-31T10:40:11;11.03;;;6.33;;
12665;SDS011;58531;59.050;17.416;2022-10-31T10:42:50;12.57;;;6.10;;
12665;SDS011;58531;59.050;17.416;2022-10-31T10:45:39;7.57;;;5.53;;
12665;SDS011;58531;59.050;17.416;2022-10-31T10:48:36;10.53;;;5.60;;
12665;SDS011;58531;59.050;17.416;2022-10-31T10:51:27;8.93;;;5.47;;
12665;SDS011;58531;59.050;17.416;2022-10-31T10:57:07;8.97;;;5.67;;
12665;SDS011;58531;59.050;17.416;2022-10-31T10:59:43;9.90;;;5.77;;
12665;SDS011;58531;59.050;17.416;2022-10-31T11:02:22;9.37;;;5.70;;
12665;SDS011;58531;59.050;17.416;2022-10-31T11:07:42;10.40;;;6.23;;
12665;SDS011;58531;59.050;17.416;2022-10-31T11:10:12;7.43;;;5.10;;
12665;SDS011;58531;59.050;17.416;2022-10-31T11:13:01;7.70;;;5.43;;
12665;SDS011;58531;59.050;17.416;2022-10-31T11:15:53;6.97;;;4.70;;
12665;SDS011;58531;59.050;17.416;2022-10-31T11:21:38;9.10;;;5.23;;
12665;SDS011;58531;59.050;17.416;2022-10-31T11:24:15;6.37;;;4.37;;
12665;SDS011;58531;59.050;17.416;2022-10-31T11:26:48;8.63;;;4.83;;
12665;SDS011;58531;59.050;17.416;2022-10-31T11:29:26;8.73;;;4.93;;
12665;SDS011;58531;59.050;17.416;2022-10-31T11:32:14;5.50;;;4.63;;
12665;SDS011;58531;59.050;17.416;2022-10-31T11:34:50;6.83;;;5.20;;
12665;SDS011;58531;59.050;17.416;2022-10-31T11:37:24;7.87;;;4.70;;
12665;SDS011;58531;59.050;17.416;2022-10-31T11:39:55;6.43;;;4.40;;
12665;SDS011;58531;59.050;17.416;2022-10-31T11:45:33;8.43;;;5.00;;
12665;SDS011;58531;59.050;17.416;2022-10-31T11:48:14;6.33;;;4.57;;
12665;SDS011;58531;59.050;17.416;2022-10-31T11:50:54;6.73;;;4.57;;
12665;SDS011;58531;59.050;17.416;2022-10-31T11:53:30;5.53;;;4.47;;
12665;SDS011;58531;59.050;17.416;2022-10-31T11:56:13;4.87;;;4.00;;
12665;SDS011;58531;59.050;17.416;2022-10-31T11:58:54;6.40;;;4.10;;
12665;SDS011;58531;59.050;17.416;2022-10-31T12:01:32;6.50;;;3.80;;
12665;SDS011;58531;59.050;17.416;2022-10-31T12:04:23;6.93;;;4.00;;
12665;SDS011;58531;59.050;17.416;2022-10-31T12:06:56;5.10;;;3.17;;
12665;SDS011;58531;59.050;17.416;2022-10-31T12:09:33;7.23;;;3.20;;
12665;SDS011;58531;59.050;17.416;2022-10-31T12:15:27;6.73;;;3.27;;
12665;SDS011;58531;59.050;17.416;2022-10-31T12:18:18;4.63;;;3.70;;
12665;SDS011;58531;59.050;17.416;2022-10-31T12:20:59;4.00;;;3.20;;
12665;SDS011;58531;59.050;17.416;2022-10-31T12:23:54;3.90;;;2.87;;
12665;SDS011;58531;59.050;17.416;2022-10-31T12:26:39;5.63;;;2.97;;
12665;SDS011;58531;59.050;17.416;2022-10-31T12:29:21;4.83;;;3.07;;
12665;SDS011;58531;59.050;17.416;2022-10-31T12:32:10;5.13;;;3.03;;
12665;SDS011;58531;59.050;17.416;2022-10-31T12:35:08;5.00;;;2.53;;
12665;SDS011;58531;59.050;17.416;2022-10-31T12:41:30;5.73;;;2.67;;
12665;SDS011;58531;59.050;17.416;2022-10-31T12:44:18;5.77;;;3.03;;
12665;SDS011;58531;59.050;17.416;2022-10-31T12:47:11;3.53;;;2.70;;
12665;SDS011;58531;59.050;17.416;2022-10-31T12:49:58;3.80;;;2.70;;
12665;SDS011;58531;59.050;17.416;2022-10-31T12:52:43;4.63;;;2.60;;
12665;SDS011;58531;59.050;17.416;2022-10-31T12:55:45;5.27;;;2.80;;
12665;SDS011;58531;59.050;17.416;2022-10-31T12:58:30;7.33;;;3.07;;
12665;SDS011;58531;59.050;17.416;2022-10-31T13:01:12;4.67;;;2.90;;
12665;SDS011;58531;59.050;17.416;2022-10-31T13:03:46;6.50;;;2.90;;
12665;SDS011;58531;59.050;17.416;2022-10-31T13:06:20;5.97;;;3.00;;
12665;SDS011;58531;59.050;17.416;2022-10-31T13:08:55;4.10;;;2.63;;
12665;SDS011;58531;59.050;17.416;2022-10-31T13:11:32;4.83;;;2.93;;
12665;SDS011;58531;59.050;17.416;2022-10-31T13:14:11;3.90;;;2.90;;
12665;SDS011;58531;59.050;17.416;2022-10-31T13:16:54;5.03;;;2.80;;
12665;SDS011;58531;59.050;17.416;2022-10-31T13:19:27;2.97;;;2.60;;
12665;SDS011;58531;59.050;17.416;2022-10-31T13:22:04;3.93;;;2.97;;
12665;SDS011;58531;59.050;17.416;2022-10-31T13:24:44;4.47;;;2.90;;
12665;SDS011;58531;59.050;17.416;2022-10-31T13:27:29;5.07;;;2.97;;
12665;SDS011;58531;59.050;17.416;2022-10-31T13:30:29;4.33;;;2.97;;
12665;SDS011;58531;59.050;17.416;2022-10-31T13:33:01;3.80;;;3.10;;
12665;SDS011;58531;59.050;17.416;2022-10-31T13:35:43;6.03;;;2.80;;
12665;SDS011;58531;59.050;17.416;2022-10-31T13:38:20;6.47;;;3.00;;
12665;SDS011;58531;59.050;17.416;2022-10-31T13:40:57;4.57;;;2.83;;
12665;SDS011;58531;59.050;17.416;2022-10-31T13:43:37;5.67;;;3.00;;
12665;SDS011;58531;59.050;17.416;2022-10-31T13:46:35;3.97;;;2.80;;
12665;SDS011;58531;59.050;17.416;2022-10-31T13:52:13;3.33;;;2.70;;
12665;SDS011;58531;59.050;17.416;2022-10-31T13:54:43;3.87;;;2.77;;
12665;SDS011;58531;59.050;17.416;2022-10-31T13:57:22;4.63;;;3.20;;
12665;SDS011;58531;59.050;17.416;2022-10-31T14:00:03;5.17;;;2.83;;
12665;SDS011;58531;59.050;17.416;2022-10-31T14:05:54;9.17;;;3.37;;
12665;SDS011;58531;59.050;17.416;2022-10-31T14:08:30;5.00;;;3.07;;
12665;SDS011;58531;59.050;17.416;2022-10-31T14:11:01;6.37;;;3.33;;
12665;SDS011;58531;59.050;17.416;2022-10-31T14:13:41;6.70;;;3.53;;
12665;SDS011;58531;59.050;17.416;2022-10-31T14:16:23;4.83;;;3.43;;
12665;SDS011;58531;59.050;17.416;2022-10-31T14:19:12;3.77;;;3.10;;
12665;SDS011;58531;59.050;17.416;2022-10-31T14:21:43;3.80;;;2.80;;
12665;SDS011;58531;59.050;17.416;2022-10-31T14:24:16;5.50;;;2.80;;
12665;SDS011;58531;59.050;17.416;2022-10-31T14:27:00;5.03;;;2.93;;
12665;SDS011;58531;59.050;17.416;2022-10-31T14:29:54;3.90;;;3.13;;
12665;SDS011;58531;59.050;17.416;2022-10-31T14:32:45;4.83;;;2.80;;
12665;SDS011;58531;59.050;17.416;2022-10-31T14:35:24;6.17;;;3.50;;
12665;SDS011;58531;59.050;17.416;2022-10-31T14:38:14;3.63;;;2.67;;
12665;SDS011;58531;59.050;17.416;2022-10-31T14:44:31;4.30;;;2.90;;
12665;SDS011;58531;59.050;17.416;2022-10-31T14:47:24;6.73;;;3.53;;
12665;SDS011;58531;59.050;17.416;2022-10-31T14:53:05;6.80;;;3.43;;
12665;SDS011;58531;59.050;17.416;2022-10-31T14:55:38;5.57;;;3.53;;
12665;SDS011;58531;59.050;17.416;2022-10-31T14:58:17;8.17;;;3.43;;
12665;SDS011;58531;59.050;17.416;2022-10-31T15:00:52;7.43;;;3.80;;
12665;SDS011;58531;59.050;17.416;2022-10-31T15:03:28;6.43;;;3.40;;
12665;SDS011;58531;59.050;17.416;2022-10-31T15:06:05;7.80;;;4.00;;
12665;SDS011;58531;59.050;17.416;2022-10-31T15:08:40;8.37;;;4.00;;
12665;SDS011;58531;59.050;17.416;2022-10-31T15:11:13;5.27;;;3.90;;
12665;SDS011;58531;59.050;17.416;2022-10-31T15:13:46;9.13;;;4.60;;
12665;SDS011;58531;59.050;17.416;2022-10-31T15:16:23;7.43;;;4.43;;
12665;SDS011;58531;59.050;17.416;2022-10-31T15:19:00;6.03;;;3.73;;
12665;SDS011;58531;59.050;17.416;2022-10-31T15:21:44;9.47;;;4.00;;
12665;SDS011;58531;59.050;17.416;2022-10-31T15:24:43;8.87;;;4.07;;
12665;SDS011;58531;59.050;17.416;2022-10-31T15:27:24;11.37;;;4.47;;
12665;SDS011;58531;59.050;17.416;2022-10-31T15:29:55;7.73;;;4.40;;
12665;SDS011;58531;59.050;17.416;2022-10-31T15:32:46;6.83;;;4.07;;
12665;SDS011;58531;59.050;17.416;2022-10-31T15:35:25;9.17;;;4.20;;
12665;SDS011;58531;59.050;17.416;2022-10-31T15:37:57;7.97;;;4.50;;